Time;durP1;ratioP1;P1;durP2;ratioP2;P2;SDS_P1;SDS_P2;PMS_P1;PMS_P2;Temp;Humidity;BMP_temperature;BMP_pressure;BME280_temperature;BME280_humidity;BME280_pressure;Samples;Min_cycle;Max_cycle;Signal;HPM_P1;HPM_P2
2022/10/09 00:02:38;;;;;;;16.95;8.55;;;;;;;7.51;100.00;99998.95;1789604;78;22914;-67
2022/10/09 00:05:05;;;;;;;15.30;7.97;;;;;;;7.39;100.00;99995.52;1728031;80;21573;-68
2022/10/09 00:07:32;;;;;;;12.70;8.00;;;;;;;7.32;100.00;99994.84;1720804;83;21619;-68
2022/10/09 00:09:58;;;;;;;12.68;8.03;;;;;;;7.25;100.00;99989.59;1721067;82;21094;-68
2022/10/09 00:12:25;;;;;;;15.95;8.28;;;;;;;7.22;100.00;99985.20;1722712;82;21103;-68
2022/10/09 00:14:51;;;;;;;15.08;7.50;;;;;;;7.23;100.00;99984.11;1725515;82;21596;-67
2022/10/09 00:17:19;;;;;;;11.63;7.10;;;;;;;7.23;100.00;99980.05;1722053;82;21070;-68
2022/10/09 00:19:47;;;;;;;14.35;8.00;;;;;;;7.23;100.00;99977.34;1732997;82;21146;-69
2022/10/09 00:22:14;;;;;;;13.28;7.95;;;;;;;7.19;100.00;99983.77;1736553;82;21078;-67
2022/10/09 00:24:42;;;;;;;12.43;8.30;;;;;;;7.15;100.00;99981.82;1725966;82;21071;-68
2022/10/09 00:27:08;;;;;;;13.60;9.25;;;;;;;7.11;100.00;99983.36;1723694;82;21058;-68
2022/10/09 00:29:35;;;;;;;12.93;9.58;;;;;;;7.11;100.00;99976.59;1722437;83;21035;-68
2022/10/09 00:32:01;;;;;;;14.83;9.90;;;;;;;7.13;100.00;99975.28;1723739;82;21534;-68
2022/10/09 00:34:28;;;;;;;13.43;9.10;;;;;;;7.16;100.00;99972.61;1721711;82;21090;-68
2022/10/09 00:36:56;;;;;;;16.17;10.30;;;;;;;7.13;100.00;99960.92;1720722;83;21062;-68
2022/10/09 00:39:22;;;;;;;15.88;9.98;;;;;;;7.07;100.00;99957.84;1720647;82;21138;-68
2022/10/09 00:41:49;;;;;;;14.33;9.60;;;;;;;7.01;100.00;99959.65;1721512;82;21565;-68
2022/10/09 00:44:56;;;;;;;170.72;96.08;;;;;;;6.93;100.00;99961.39;1736285;82;21144;-68
2022/10/09 00:47:33;;;;;;;19.07;11.78;;;;;;;6.91;100.00;99953.50;1719141;82;21758;-67
2022/10/09 00:50:20;;;;;;;20.75;13.25;;;;;;;6.86;100.00;99957.48;1710297;82;21106;-68
2022/10/09 00:52:51;;;;;;;18.12;11.18;;;;;;;6.78;100.00;99964.63;1749323;82;21074;-68
2022/10/09 00:55:18;;;;;;;16.57;8.98;;;;;;;6.66;100.00;99965.19;1723979;82;21137;-68
2022/10/09 00:57:46;;;;;;;13.83;9.40;;;;;;;6.54;100.00;99958.19;1720754;83;21035;-68
2022/10/09 01:00:14;;;;;;;13.18;8.63;;;;;;;6.52;100.00;99963.02;1720492;83;21119;-67
2022/10/09 01:02:41;;;;;;;14.65;8.23;;;;;;;6.55;100.00;99966.59;1721539;83;21070;-67
2022/10/09 01:05:08;;;;;;;13.40;8.28;;;;;;;6.56;100.00;99959.58;1730294;82;21027;-67
2022/10/09 01:07:58;;;;;;;14.47;10.20;;;;;;;6.57;100.00;99959.05;1721656;83;21114;-68
2022/10/09 01:10:51;;;;;;;13.43;9.95;;;;;;;6.50;100.00;99960.02;1742445;82;21668;-68
2022/10/09 01:13:33;;;;;;;14.00;9.48;;;;;;;6.45;100.00;99957.20;1721925;82;21066;-68
2022/10/09 01:16:10;;;;;;;15.72;9.40;;;;;;;6.46;100.00;99945.86;1724720;82;21145;-68
2022/10/09 01:19:12;;;;;;;17.35;9.68;;;;;;;6.48;100.00;99951.86;1721232;82;21094;-68
2022/10/09 01:22:08;;;;;;;16.37;9.25;;;;;;;6.49;100.00;99944.84;1749592;82;21055;-68
2022/10/09 01:24:40;;;;;;;16.82;11.22;;;;;;;6.46;100.00;99950.73;1681552;82;21135;-68
2022/10/09 01:27:17;;;;;;;14.47;10.35;;;;;;;6.39;100.00;99950.05;1727141;82;21078;-68
2022/10/09 01:29:48;;;;;;;14.78;9.95;;;;;;;6.39;100.00;99941.94;1748882;80;21575;-68
2022/10/09 01:32:19;;;;;;;18.82;9.40;;;;;;;6.43;100.00;99938.22;1720870;82;21082;-68
2022/10/09 01:34:48;;;;;;;14.95;9.83;;;;;;;6.45;100.00;99937.44;1731902;81;21634;-68
2022/10/09 01:37:15;;;;;;;16.10;9.60;;;;;;;6.44;100.00;99932.59;1740797;82;21134;-67
2022/10/09 01:39:42;;;;;;;13.22;9.70;;;;;;;6.40;100.00;99934.13;1750669;82;21675;-68
2022/10/09 01:42:10;;;;;;;14.40;9.00;;;;;;;6.37;100.00;99934.61;1733569;82;21059;-68
2022/10/09 01:44:37;;;;;;;14.40;9.08;;;;;;;6.39;100.00;99926.24;1728320;82;21680;-68
2022/10/09 01:47:03;;;;;;;12.75;8.53;;;;;;;6.42;100.00;99929.28;1723495;82;21039;-68
2022/10/09 01:49:41;;;;;;;13.32;8.25;;;;;;;6.44;100.00;99929.06;1655747;83;21117;-68
2022/10/09 01:52:32;;;;;;;13.35;9.05;;;;;;;6.39;100.00;99923.02;1721126;83;21133;-68
2022/10/09 01:55:20;;;;;;;13.55;8.65;;;;;;;6.33;100.00;99925.33;1721920;82;21188;-68
2022/10/09 01:58:09;;;;;;;15.93;8.85;;;;;;;6.28;100.00;99923.03;1708054;82;21086;-67
2022/10/09 02:00:40;;;;;;;14.93;9.43;;;;;;;6.27;100.00;99920.86;1721063;82;21071;-68
2022/10/09 02:03:08;;;;;;;21.02;9.30;;;;;;;6.31;100.00;99920.67;1706939;82;21090;-68
2022/10/09 02:05:35;;;;;;;12.93;9.55;;;;;;;6.35;100.00;99928.60;1713351;82;21020;-67
2022/10/09 02:08:01;;;;;;;15.98;9.53;;;;;;;6.36;100.00;99930.78;1729735;82;21043;-68
2022/10/09 02:10:28;;;;;;;16.55;10.32;;;;;;;6.34;100.00;99932.36;1729803;82;21020;-67
2022/10/09 02:12:56;;;;;;;;;;;;;;;6.26;100.00;99926.00;1709628;84;21978;-67
2022/10/09 02:15:33;;;;;;;16.80;11.45;;;;;;;6.21;100.00;99927.23;1673137;84;20561;-68
2022/10/09 02:18:06;;;;;;;20.50;11.60;;;;;;;6.07;100.00;99912.33;1664690;85;21103;-68
2022/10/09 02:20:35;;;;;;;15.13;10.55;;;;;;;6.13;100.00;99912.72;1673995;84;21015;-67
2022/10/09 02:23:04;;;;;;;17.82;10.93;;;;;;;6.16;100.00;99916.33;1707499;84;21125;-67
2022/10/09 02:25:32;;;;;;;15.78;10.55;;;;;;;6.18;100.00;99914.72;1712263;82;21463;-67
2022/10/09 02:27:58;;;;;;;;;;;;;;;6.16;100.00;99908.22;1715647;82;21067;-67
2022/10/09 02:30:25;;;;;;;16.80;11.38;;;;;;;6.11;100.00;99910.80;1707526;84;20170;-68
2022/10/09 02:32:53;;;;;;;18.27;11.18;;;;;;;6.01;100.00;99916.00;1686144;84;21118;-67
2022/10/09 02:35:20;;;;;;;18.62;10.82;;;;;;;6.02;100.00;99916.83;1730811;82;21059;-67
2022/10/09 02:37:48;;;;;;;17.90;9.88;;;;;;;6.06;100.00;99918.00;1716367;82;21114;-67
2022/10/09 02:40:16;;;;;;;19.62;10.78;;;;;;;6.06;100.00;99913.94;1710760;82;21665;-67
2022/10/09 02:42:42;;;;;;;20.57;11.30;;;;;;;6.03;100.00;99914.39;1707583;82;21653;-67
2022/10/09 02:45:09;;;;;;;15.75;11.00;;;;;;;5.96;100.00;99910.47;1709011;82;21732;-66
2022/10/09 02:47:36;;;;;;;17.02;11.00;;;;;;;5.90;100.00;99909.55;1709567;82;21760;-69
2022/10/09 02:50:03;;;;;;;;;;;;;;;5.88;100.00;99912.20;1714844;82;21075;-68
2022/10/09 02:52:29;;;;;;;15.25;10.25;;;;;;;5.89;100.00;99904.38;1707469;84;20487;-69
2022/10/09 02:54:56;;;;;;;16.80;10.10;;;;;;;5.86;100.00;99910.25;1707252;84;21158;-69
2022/10/09 02:57:23;;;;;;;14.15;9.73;;;;;;;5.87;100.00;99910.03;1708520;82;22180;-67
2022/10/09 02:59:50;;;;;;;18.50;10.23;;;;;;;5.87;100.00;99917.31;1712402;82;22437;-68
2022/10/09 03:02:16;;;;;;;19.05;10.82;;;;;;;5.83;100.00;99913.41;1711329;83;21149;-69
2022/10/09 03:04:43;;;;;;;;;;;;;;;5.78;100.00;99919.50;1685516;84;21662;-69
2022/10/09 03:07:09;;;;;;;18.15;10.40;;;;;;;5.78;100.00;99909.22;1673376;84;20163;-69
2022/10/09 03:09:36;;;;;;;15.93;10.25;;;;;;;5.78;100.00;99911.92;1673017;84;21142;-69
2022/10/09 03:12:03;;;;;;;16.93;10.93;;;;;;;5.78;100.00;99901.95;1693160;84;21035;-69
2022/10/09 03:14:30;;;;;;;19.77;10.00;;;;;;;5.81;100.00;99904.73;1694889;84;22346;-68
2022/10/09 03:16:58;;;;;;;16.57;10.63;;;;;;;5.80;100.00;99902.55;1696987;84;21070;-69
2022/10/09 03:19:24;;;;;;;17.80;11.12;;;;;;;5.78;100.00;99897.89;1680982;84;21597;-68
2022/10/09 03:21:50;;;;;;;21.20;10.88;;;;;;;5.76;100.00;99898.67;1671870;84;21106;-69
2022/10/09 03:24:16;;;;;;;17.82;10.90;;;;;;;5.76;100.00;99902.72;1669460;84;21098;-68
2022/10/09 03:26:45;;;;;;;19.12;10.98;;;;;;;5.80;100.00;99894.45;1670355;84;21094;-68
2022/10/09 03:29:12;;;;;;;15.83;10.28;;;;;;;5.86;100.00;99902.15;1669469;84;21577;-69
2022/10/09 03:31:38;;;;;;;17.23;9.88;;;;;;;5.88;100.00;99898.14;1684863;84;21077;-68
2022/10/09 03:34:05;;;;;;;16.85;10.53;;;;;;;5.87;100.00;99899.75;1715674;82;21149;-69
2022/10/09 03:36:32;;;;;;;17.30;10.75;;;;;;;5.80;100.00;99897.67;1732187;82;21048;-69
2022/10/09 03:38:58;;;;;;;15.23;10.53;;;;;;;5.75;100.00;99896.20;1714722;82;21081;-69
2022/10/09 03:41:25;;;;;;;15.30;10.05;;;;;;;5.75;100.00;99894.31;1719759;82;21038;-68
2022/10/09 03:43:51;;;;;;;15.55;10.13;;;;;;;5.77;100.00;99899.50;1715799;82;21071;-69
2022/10/09 03:46:17;;;;;;;16.55;9.98;;;;;;;5.78;100.00;99896.55;1717095;82;21007;-69
2022/10/09 03:48:44;;;;;;;16.50;9.90;;;;;;;5.75;100.00;99887.56;1715431;82;21070;-69
2022/10/09 03:51:10;;;;;;;15.53;10.90;;;;;;;5.70;100.00;99883.94;1722077;82;20975;-68
2022/10/09 03:53:37;;;;;;;14.18;9.58;;;;;;;5.66;100.00;99884.13;1727703;82;21716;-66
2022/10/09 03:56:04;;;;;;;17.10;11.15;;;;;;;5.64;100.00;99882.16;1745358;82;21342;-66
2022/10/09 03:58:30;;;;;;;18.07;10.75;;;;;;;5.67;100.00;99881.72;1744741;82;21039;-66
2022/10/09 04:00:57;;;;;;;18.57;10.28;;;;;;;5.68;100.00;99877.94;1723774;82;21849;-67
2022/10/09 04:03:26;;;;;;;16.12;10.65;;;;;;;5.69;100.00;99883.12;1723285;82;21146;-67
2022/10/09 04:05:52;;;;;;;18.80;10.80;;;;;;;5.68;100.00;99875.23;1721028;83;21034;-67
2022/10/09 04:08:19;;;;;;;16.93;10.90;;;;;;;5.62;100.00;99882.42;1724206;82;21090;-67
2022/10/09 04:10:46;;;;;;;15.60;10.32;;;;;;;5.58;100.00;99880.41;1721551;82;20979;-67
2022/10/09 04:13:12;;;;;;;17.48;9.95;;;;;;;5.58;100.00;99881.24;1721346;82;21560;-68
2022/10/09 04:15:44;;;;;;;15.65;9.75;;;;;;;5.61;100.00;99889.39;1721152;83;21023;-68
2022/10/09 04:18:10;;;;;;;16.12;10.15;;;;;;;5.65;100.00;99882.47;1694896;83;21106;-67
2022/10/09 04:20:38;;;;;;;17.02;9.78;;;;;;;5.66;100.00;99878.20;1725780;82;21058;-68
2022/10/09 04:23:04;;;;;;;14.23;10.10;;;;;;;5.66;100.00;99880.89;1725719;82;22247;-68
2022/10/09 04:25:30;;;;;;;12.45;9.28;;;;;;;5.63;100.00;99872.44;1720895;82;21094;-67
2022/10/09 04:27:58;;;;;;;17.12;10.72;;;;;;;5.59;100.00;99869.92;1721604;82;21672;-68
2022/10/09 04:30:24;;;;;;;;;;;;;;;5.62;100.00;99866.73;1724554;82;21138;-68
2022/10/09 04:32:51;;;;;;;16.40;9.98;;;;;;;5.67;100.00;99868.22;1728857;82;20140;-68
2022/10/09 04:35:17;;;;;;;14.45;10.08;;;;;;;5.68;100.00;99878.77;1750852;82;21079;-68
2022/10/09 04:37:43;;;;;;;17.65;10.13;;;;;;;5.73;100.00;99879.41;1749944;82;21405;-67
2022/10/09 04:40:11;;;;;;;20.02;10.30;;;;;;;5.75;100.00;99882.69;1750474;82;21589;-68
2022/10/09 04:42:37;;;;;;;15.70;10.40;;;;;;;5.74;100.00;99884.56;1727069;82;21038;-68
2022/10/09 04:45:05;;;;;;;15.70;10.00;;;;;;;5.75;100.00;99881.34;1721005;83;21070;-67
2022/10/09 04:47:33;;;;;;;18.20;11.03;;;;;;;5.80;100.00;99882.81;1689142;84;22275;-68
2022/10/09 04:49:59;;;;;;;18.30;10.82;;;;;;;5.90;100.00;99882.53;1722253;82;21098;-68
2022/10/09 04:52:25;;;;;;;14.50;9.85;;;;;;;6.00;100.00;99886.80;1722766;82;21066;-68
2022/10/09 04:54:52;;;;;;;14.05;10.18;;;;;;;6.11;100.00;99903.22;1728918;80;21684;-67
2022/10/09 04:57:19;;;;;;;15.55;10.65;;;;;;;6.16;100.00;99903.34;1725401;82;21054;-67
2022/10/09 04:59:45;;;;;;;;;;;;;;;6.17;100.00;99901.73;1723645;82;21596;-67
2022/10/09 05:02:11;;;;;;;16.62;11.15;;;;;;;6.19;100.00;99906.39;1722460;82;20439;-68
2022/10/09 05:04:38;;;;;;;;;;;;;;;6.15;100.00;99906.56;1714948;82;21075;-67
2022/10/09 05:07:05;;;;;;;17.20;10.68;;;;;;;6.23;100.00;99911.61;1717735;82;20186;-68
2022/10/09 05:09:32;;;;;;;16.70;10.78;;;;;;;6.30;100.00;99913.65;1715821;82;21138;-67
2022/10/09 05:11:59;;;;;;;19.92;10.60;;;;;;;6.40;100.00;99911.67;1707969;82;21043;-68
2022/10/09 05:14:25;;;;;;;16.15;9.53;;;;;;;6.52;100.00;99902.97;1662613;85;21683;-67
2022/10/09 05:16:53;;;;;;;13.32;9.48;;;;;;;6.62;100.00;99901.83;1700055;82;21039;-67
2022/10/09 05:19:19;;;;;;;13.68;9.88;;;;;;;6.70;100.00;99906.00;1708546;82;21672;-67
2022/10/09 05:21:47;;;;;;;15.23;9.15;;;;;;;6.79;100.00;99901.34;1707594;84;21035;-68
2022/10/09 05:24:13;;;;;;;;;;;;;;;6.90;100.00;99901.81;1727538;82;22048;-68
2022/10/09 05:26:39;;;;;;;16.80;9.35;;;;;;;7.02;100.00;99905.78;1709404;82;20145;-68
2022/10/09 05:29:06;;;;;;;14.73;10.32;;;;;;;7.08;100.00;99908.06;1722092;82;21087;-68
2022/10/09 05:31:33;;;;;;;15.08;9.40;;;;;;;7.16;100.00;99917.94;1725572;82;21513;-68
2022/10/09 05:34:00;;;;;;;19.27;10.28;;;;;;;7.24;100.00;99908.59;1674251;84;21079;-68
2022/10/09 05:36:27;;;;;;;17.85;9.75;;;;;;;7.34;100.00;99916.87;1710479;82;21007;-68
2022/10/09 05:38:54;;;;;;;15.32;9.25;;;;;;;7.50;100.00;99910.13;1707962;82;21118;-68
2022/10/09 05:41:21;;;;;;;12.63;9.48;;;;;;;7.66;100.00;99921.17;1718427;82;21039;-68
2022/10/09 05:43:48;;;;;;;13.08;9.18;;;;;;;7.75;100.00;99919.17;1710614;82;21075;-68
2022/10/09 05:46:17;;;;;;;14.20;9.55;;;;;;;7.79;100.00;99921.67;1704939;82;20985;-68
2022/10/09 05:48:52;;;;;;;13.88;9.15;;;;;;;7.83;100.00;99918.72;1707356;82;21625;-68
2022/10/09 05:51:23;;;;;;;12.70;8.48;;;;;;;7.91;100.00;99922.89;1708064;82;21637;-68
2022/10/09 05:53:49;;;;;;;15.15;9.08;;;;;;;7.99;100.00;99923.30;1715711;82;21142;-67
2022/10/09 05:56:26;;;;;;;15.88;9.68;;;;;;;8.08;100.00;99916.89;1715091;82;21000;-68
2022/10/09 05:59:02;;;;;;;13.48;9.48;;;;;;;8.19;100.00;99914.60;1717840;82;21091;-68
2022/10/09 06:01:32;;;;;;;14.83;9.48;;;;;;;8.28;100.00;99916.35;1731309;82;21721;-66
2022/10/09 06:04:00;;;;;;;16.75;9.65;;;;;;;8.40;100.00;99920.59;1710250;82;21626;-67
2022/10/09 06:06:28;;;;;;;;;;;;;;;8.65;100.00;99928.21;1725571;82;21536;-66
2022/10/09 06:08:55;;;;;;;14.93;8.73;;;;;;;8.96;100.00;99930.16;1714146;82;20133;-66
2022/10/09 06:11:30;;;;;;;12.73;9.10;;;;;;;9.19;100.00;99929.57;1709526;82;21545;-67
2022/10/09 06:13:59;;;;;;;16.15;10.30;;;;;;;9.49;100.00;99929.28;1711655;82;21126;-67
2022/10/09 06:16:32;;;;;;;16.35;9.98;;;;;;;9.79;100.00;99933.31;1719018;82;21003;-67
2022/10/09 06:19:00;;;;;;;17.55;10.05;;;;;;;10.04;100.00;99929.39;1707663;82;21657;-67
2022/10/09 06:21:27;;;;;;;15.80;9.78;;;;;;;10.37;100.00;99941.31;1707907;83;21126;-66
2022/10/09 06:23:55;;;;;;;;;;;;;;;10.69;100.00;99938.97;1717608;82;22175;-67
2022/10/09 06:26:22;;;;;;;13.38;9.50;;;;;;;10.93;100.00;99942.84;1711992;82;20133;-66
2022/10/09 06:28:49;;;;;;;15.35;10.10;;;;;;;11.05;100.00;99938.52;1716566;82;21047;-68
2022/10/09 06:31:20;;;;;;;12.73;9.95;;;;;;;11.26;100.00;99927.92;1720887;82;22201;-68
2022/10/09 06:33:48;;;;;;;15.23;9.80;;;;;;;11.50;100.00;99930.38;1708824;82;21079;-69
2022/10/09 06:36:17;;;;;;;18.77;10.50;;;;;;;11.70;100.00;99922.17;1720627;82;20999;-67
2022/10/09 06:38:45;;;;;;;17.62;10.05;;;;;;;11.91;100.00;99918.36;1736490;82;21074;-68
2022/10/09 06:41:16;;;;;;;12.43;9.60;;;;;;;12.12;100.00;99917.75;1718120;82;21578;-67
2022/10/09 06:43:49;;;;;;;16.27;9.65;;;;;;;12.38;100.00;99916.59;1723893;82;21091;-69
2022/10/09 06:46:16;;;;;;;11.90;8.63;;;;;;;12.68;100.00;99918.92;1705905;84;21039;-70
2022/10/09 06:48:43;;;;;;;14.93;9.30;;;;;;;12.87;100.00;99909.78;1709666;82;21059;-65
2022/10/09 06:51:15;;;;;;;14.13;9.50;;;;;;;12.97;100.00;99902.06;1710411;82;21020;-65
2022/10/09 06:53:50;;;;;;;14.50;9.43;;;;;;;12.96;100.00;99896.35;1721629;82;21059;-66
2022/10/09 06:56:17;;;;;;;16.23;8.88;;;;;;;12.97;100.00;99896.05;1732697;82;21553;-65
2022/10/09 07:00:21;;;;;;;16.60;10.10;;;;;;;13.39;100.00;99896.85;1832052;75;23265;-66
2022/10/09 07:02:48;;;;;;;;;;;;;;;13.55;100.00;99901.66;1820292;77;21074;-63
2022/10/09 07:05:15;;;;;;;16.23;9.58;;;;;;;13.67;100.00;99903.47;1821475;78;20136;-64
2022/10/09 07:07:43;;;;;;;15.28;9.38;;;;;;;13.82;100.00;99900.56;1797661;78;21589;-64
2022/10/09 07:10:09;;;;;;;;;;;;;;;14.15;100.00;99897.48;1812771;78;21853;-67
2022/10/09 07:12:36;;;;;;;15.32;8.60;;;;;;;14.45;100.00;99899.88;1793771;78;20145;-66
2022/10/09 07:15:05;;;;;;;14.80;8.70;;;;;;;14.64;100.00;99897.72;1794373;78;22237;-67
2022/10/09 07:17:32;;;;;;;14.95;8.98;;;;;;;14.91;100.00;99899.28;1797173;78;20951;-67
2022/10/09 07:20:00;;;;;;;14.15;9.08;;;;;;;15.06;100.00;99887.25;1819318;78;21002;-65
2022/10/09 07:22:27;;;;;;;14.80;9.05;;;;;;;15.25;100.00;99883.94;1804657;78;20970;-66
2022/10/09 07:24:53;;;;;;;12.58;8.75;;;;;;;15.38;100.00;99877.13;1813399;78;21547;-66
2022/10/09 07:27:20;;;;;;;14.47;8.65;;;;;;;15.52;100.00;99876.41;1790613;78;21035;-66
2022/10/09 07:29:47;;;;;;;15.50;8.50;;;;;;;15.74;100.00;99875.17;1792499;78;21078;-67
2022/10/09 07:32:13;;;;;;;15.23;8.30;;;;;;;16.00;100.00;99872.77;1795065;78;21013;-65
2022/10/09 07:34:40;;;;;;;12.10;7.95;;;;;;;16.26;100.00;99868.42;1775869;78;21630;-66
2022/10/09 07:37:07;;;;;;;;;;;;;;;16.49;100.00;99858.30;1789750;79;20993;-68
2022/10/09 07:39:34;;;;;;;12.00;8.10;;;;;;;16.69;100.00;99854.58;1805053;78;20125;-67
2022/10/09 07:42:02;;;;;;;11.40;7.20;;;;;;;16.78;100.00;99853.30;1755101;79;21033;-68
2022/10/09 07:44:28;;;;;;;10.20;6.78;;;;;;;17.03;100.00;99849.95;1818304;78;21509;-68
2022/10/09 07:46:55;;;;;;;13.10;7.08;;;;;;;17.31;100.00;99849.27;1807432;78;21503;-68
2022/10/09 07:49:21;;;;;;;11.53;6.60;;;;;;;17.54;100.00;99850.05;1790422;78;21082;-67
2022/10/09 07:51:48;;;;;;;10.25;6.00;;;;;;;17.78;100.00;99851.34;1805731;78;20978;-68
2022/10/09 07:54:14;;;;;;;9.53;6.50;;;;;;;18.04;100.00;99851.47;1799825;78;21042;-68
2022/10/09 07:56:41;;;;;;;11.08;4.97;;;;;;;18.21;100.00;99852.12;1804764;78;21818;-68
2022/10/09 07:59:11;;;;;;;8.85;4.47;;;;;;;18.38;100.00;99846.09;1803499;78;21038;-67
2022/10/09 08:01:38;;;;;;;11.73;5.42;;;;;;;18.54;100.00;99850.59;1813269;78;21003;-67
2022/10/09 08:04:05;;;;;;;10.38;6.37;;;;;;;18.66;100.00;99840.33;1818414;78;21130;-68
2022/10/09 08:06:32;;;;;;;7.58;4.67;;;;;;;18.83;100.00;99848.61;1801755;78;21214;-67
2022/10/09 08:08:59;;;;;;;7.62;3.87;;;;;;;18.98;100.00;99850.89;1820502;78;21054;-68
2022/10/09 08:11:27;;;;;;;7.17;3.95;;;;;;;19.11;100.00;99836.68;1802530;77;21497;-67
2022/10/09 08:13:55;;;;;;;6.78;3.40;;;;;;;19.20;100.00;99836.91;1800883;77;22063;-68
2022/10/09 08:16:22;;;;;;;8.60;3.60;;;;;;;19.35;100.00;99832.83;1806702;77;21030;-68
2022/10/09 08:18:55;;;;;;;7.70;4.20;;;;;;;19.43;100.00;99821.57;1813647;77;21640;-68
2022/10/09 08:21:22;;;;;;;9.00;4.45;;;;;;;19.54;100.00;99815.94;1804886;78;21544;-65
2022/10/09 08:23:55;;;;;;;6.78;3.87;;;;;;;19.59;100.00;99805.52;1812161;78;21093;-68
2022/10/09 08:26:22;;;;;;;7.87;3.90;;;;;;;19.49;100.00;99796.22;1748048;79;21022;-67
2022/10/09 08:28:52;;;;;;;9.43;3.87;;;;;;;19.39;100.00;99786.31;1813244;78;21556;-67
2022/10/09 08:31:19;;;;;;;5.83;3.98;;;;;;;19.27;100.00;99784.78;1822714;78;21271;-66
2022/10/09 08:33:46;;;;;;;7.30;4.00;;;;;;;19.12;100.00;99781.19;1814128;77;21071;-67
2022/10/09 08:36:16;;;;;;;7.28;4.08;;;;;;;18.94;100.00;99787.04;1810350;77;21034;-66
2022/10/09 08:38:43;;;;;;;7.80;4.20;;;;;;;18.85;100.00;99802.20;1796429;78;21046;-67
2022/10/09 08:41:41;;;;;;;6.33;4.40;;;;;;;18.89;100.00;99816.97;1810142;77;21632;-67
2022/10/09 08:44:19;;;;;;;;;;;;;;;18.98;100.00;99811.46;1800240;77;21136;-67
2022/10/09 08:46:56;;;;;;;8.65;4.72;;;;;;;19.09;100.00;99811.37;1813792;78;20172;-66
2022/10/09 08:49:49;;;;;;;9.48;3.70;;;;;;;19.10;100.00;99808.84;1794168;78;21145;-65
2022/10/09 08:52:36;;;;;;;8.35;4.08;;;;;;;19.11;100.00;99818.18;1804285;77;21024;-66
2022/10/09 08:55:28;;;;;;;7.50;4.37;;;;;;;19.26;100.00;99816.88;1804466;78;21112;-66
2022/10/09 08:57:58;;;;;;;7.87;4.47;;;;;;;19.41;100.00;99808.64;1789919;77;21702;-66
2022/10/09 09:00:28;;;;;;;8.08;4.47;;;;;;;19.47;100.00;99806.79;1806106;78;21053;-66
2022/10/09 09:03:14;;;;;;;7.67;4.22;;;;;;;19.58;100.00;99801.72;1806570;77;21050;-66
2022/10/09 09:06:15;;;;;;;8.60;3.90;;;;;;;19.69;100.00;99800.23;1788734;78;21103;-67
2022/10/09 09:09:00;;;;;;;7.08;3.80;;;;;;;19.71;100.00;99795.98;1778140;78;21050;-67
2022/10/09 09:11:58;;;;;;;6.10;3.37;;;;;;;19.66;100.00;99796.75;1806063;77;21540;-66
2022/10/09 09:14:47;;;;;;;7.75;3.60;;;;;;;19.66;100.00;99798.13;1797171;77;21350;-65
2022/10/09 09:17:28;;;;;;;6.67;3.70;;;;;;;19.82;100.00;99788.14;1810940;77;21113;-65
2022/10/09 09:23:45;;;;;;;10.23;4.33;;;;;;;20.08;100.00;99776.41;1803929;77;22857;-70
2022/10/09 09:26:16;;;;;;;7.20;4.20;;;;;;;20.01;100.00;99780.84;1762380;80;21093;-71
2022/10/09 09:28:43;;;;;;;6.45;3.75;;;;;;;20.09;100.00;99779.95;1756833;80;20979;-70
2022/10/09 09:31:34;;;;;;;8.83;5.10;;;;;;;20.02;100.00;99785.20;1746213;80;21117;-69
2022/10/09 09:34:29;;;;;;;7.65;3.60;;;;;;;19.92;100.00;99783.62;1706600;83;21082;-70
2022/10/09 09:36:57;;;;;;;7.37;3.90;;;;;;;19.95;100.00;99787.67;1664973;85;22396;-69
2022/10/09 09:39:27;;;;;;;17.52;6.20;;;;;;;20.01;100.00;99784.98;1705865;81;20985;-69
2022/10/09 09:42:08;;;;;;;11.70;3.77;;;;;;;20.03;100.00;99786.83;1707083;82;21743;-70
2022/10/09 09:44:37;;;;;;;6.47;4.00;;;;;;;20.00;100.00;99782.78;1701680;82;21109;-70
2022/10/09 09:47:04;;;;;;;6.42;3.83;;;;;;;19.96;100.00;99786.53;1706379;84;22099;-71
2022/10/09 09:49:31;;;;;;;7.50;3.95;;;;;;;19.94;100.00;99786.07;1676101;84;21023;-71
2022/10/09 09:51:57;;;;;;;8.85;4.12;;;;;;;19.89;100.00;99782.91;1699335;83;21063;-70
2022/10/09 09:54:28;;;;;;;8.73;4.28;;;;;;;19.90;100.00;99790.06;1676341;84;21009;-70
2022/10/09 09:56:57;;;;;;;11.20;5.55;;;;;;;19.86;100.00;99782.20;1706444;82;21082;-69
2022/10/09 09:59:37;;;;;;;7.40;3.58;;;;;;;19.85;100.00;99782.77;1706183;83;20974;-67
2022/10/09 10:02:21;;;;;;;8.33;3.62;;;;;;;19.75;100.00;99789.23;1705858;83;21680;-67
2022/10/09 10:05:00;;;;;;;8.70;6.50;;;;;;;19.64;100.00;99794.87;1706413;84;21815;-67
2022/10/09 10:07:34;;;;;;;16.65;8.48;;;;;;;19.52;100.00;99794.17;1708237;83;21020;-67
2022/10/09 10:10:10;;;;;;;11.97;6.78;;;;;;;19.42;100.00;99804.19;1695880;83;21054;-67
2022/10/09 10:12:47;;;;;;;9.15;4.22;;;;;;;19.29;100.00;99796.33;1706916;83;21975;-67
2022/10/09 10:15:22;;;;;;;8.73;4.05;;;;;;;19.10;100.00;99793.66;1706155;84;21561;-67
2022/10/09 10:18:13;;;;;;;7.85;3.85;;;;;;;18.89;100.00;99800.42;1699590;83;21118;-68
2022/10/09 10:20:49;;;;;;;10.48;3.83;;;;;;;18.72;100.00;99804.00;1705666;82;21526;-67
2022/10/09 10:23:41;;;;;;;11.70;3.95;;;;;;;18.61;100.00;99804.63;1694169;83;21047;-67
2022/10/09 10:26:21;;;;;;;13.25;4.47;;;;;;;18.61;100.00;99807.38;1689551;83;21541;-67
2022/10/09 10:29:24;;;;;;;10.43;4.53;;;;;;;18.56;100.00;99800.67;1689727;83;21007;-67
2022/10/09 10:32:31;;;;;;;6.65;4.50;;;;;;;18.56;100.00;99802.05;1656612;84;21585;-67
2022/10/09 10:35:15;;;;;;;7.62;4.65;;;;;;;18.61;100.00;99798.55;1687023;83;21008;-70
2022/10/09 10:38:05;;;;;;;7.22;4.95;;;;;;;18.67;100.00;99784.06;1690401;83;21075;-69
2022/10/09 10:40:49;;;;;;;10.63;5.25;;;;;;;18.65;100.00;99787.69;1685747;83;21008;-70
2022/10/09 10:43:36;;;;;;;13.53;7.33;;;;;;;18.59;100.00;99784.86;1690131;83;21037;-69
2022/10/09 10:46:24;;;;;;;15.08;5.85;;;;;;;18.70;100.00;99784.78;1691810;83;21059;-71
2022/10/09 10:48:51;;;;;;;8.50;5.40;;;;;;;18.81;100.00;99779.97;1689919;83;21039;-71
2022/10/09 10:51:31;;;;;;;11.18;5.80;;;;;;;18.92;100.00;99782.43;1741458;81;21011;-71
2022/10/09 10:54:09;;;;;;;11.70;5.30;;;;;;;19.00;100.00;99782.97;1747631;82;21027;-71
2022/10/09 10:56:59;;;;;;;7.87;4.53;;;;;;;19.06;100.00;99780.30;1717395;81;21059;-67
2022/10/09 10:59:59;;;;;;;12.37;5.22;;;;;;;19.10;100.00;99783.44;1745326;82;20998;-67
2022/10/09 11:03:07;;;;;;;11.43;6.53;;;;;;;19.00;100.00;99785.16;1745977;81;21131;-68
2022/10/09 11:05:46;;;;;;;11.60;5.80;;;;;;;18.84;100.00;99789.00;1660649;85;21014;-68
2022/10/09 11:08:47;;;;;;;10.75;6.35;;;;;;;18.66;100.00;99793.45;1636462;86;21113;-71
2022/10/09 11:11:39;;;;;;;12.03;6.70;;;;;;;18.45;100.00;99800.70;1706938;81;21074;-72
2022/10/09 11:14:32;;;;;;;11.03;5.97;;;;;;;18.32;100.00;99799.69;1746886;81;21062;-70
2022/10/09 11:17:27;;;;;;;13.00;6.78;;;;;;;18.04;100.00;99808.77;1692272;83;21094;-65
2022/10/09 11:20:02;;;;;;;11.12;6.42;;;;;;;17.76;100.00;99804.62;1677575;81;20995;-67
2022/10/09 11:22:59;;;;;;;8.93;6.28;;;;;;;17.51;100.00;99801.14;1742148;81;21410;-67
2022/10/09 11:25:37;;;;;;;12.95;6.22;;;;;;;17.35;100.00;99797.44;1658473;85;21000;-67
2022/10/09 11:28:16;;;;;;;9.03;6.53;;;;;;;17.27;100.00;99802.31;1706595;81;21072;-68
2022/10/09 11:31:14;;;;;;;12.30;7.08;;;;;;;17.25;100.00;99803.77;1746293;81;20952;-68
2022/10/09 11:33:46;;;;;;;14.18;7.90;;;;;;;17.13;100.00;99802.95;1728636;81;20988;-67
2022/10/09 11:36:32;;;;;;;13.40;8.10;;;;;;;17.04;100.00;99814.43;1728965;81;21542;-68
2022/10/09 11:39:02;;;;;;;19.23;8.45;;;;;;;16.96;100.00;99817.14;1741905;81;21032;-68
2022/10/09 11:41:28;;;;;;;13.88;8.33;;;;;;;16.89;100.00;99832.14;1744894;81;21042;-68
2022/10/09 11:44:38;;;;;;;14.07;8.55;;;;;;;16.72;100.00;99832.55;1741670;81;21046;-67
2022/10/09 11:47:27;;;;;;;14.80;8.45;;;;;;;16.54;100.00;99837.59;1739438;81;21094;-69
2022/10/09 11:50:26;;;;;;;16.90;11.35;;;;;;;16.36;100.00;99844.30;1715286;83;21624;-67
2022/10/09 11:53:14;;;;;;;19.95;14.98;;;;;;;16.16;100.00;99854.31;1736544;81;21098;-70
2022/10/09 11:55:42;;;;;;;22.40;15.90;;;;;;;16.00;100.00;99858.48;1710211;82;21472;-69